createdAt,value
2022-12-27T00:01:52.822Z,2.90
2022-12-27T00:05:54.053Z,2.90
2022-12-27T00:09:55.207Z,3.10
2022-12-27T00:13:58.669Z,2.77
2022-12-27T00:17:59.842Z,3.07
2022-12-27T00:22:01.014Z,2.80
2022-12-27T00:26:08.519Z,4.00
2022-12-27T00:30:10.851Z,3.80
2022-12-27T00:34:11.929Z,2.53
2022-12-27T00:38:13.074Z,2.83
2022-12-27T00:42:14.245Z,2.73
2022-12-27T00:46:15.970Z,3.13
2022-12-27T00:50:17.287Z,3.00
2022-12-27T00:54:18.679Z,2.70
2022-12-27T00:58:19.970Z,2.77
2022-12-27T01:02:22.565Z,2.70
2022-12-27T01:06:28.191Z,2.10
2022-12-27T01:10:29.772Z,2.43
2022-12-27T01:14:31.021Z,2.60
2022-12-27T01:18:32.911Z,2.43
2022-12-27T01:22:34.134Z,2.20
2022-12-27T01:26:35.339Z,3.20
2022-12-27T01:30:36.515Z,2.00
2022-12-27T01:34:37.703Z,1.90
2022-12-27T01:38:41.298Z,2.30
2022-12-27T01:42:51.320Z,1.77
2022-12-27T01:46:52.541Z,1.97
2022-12-27T01:50:57.416Z,1.80
2022-12-27T01:55:02.414Z,1.73
2022-12-27T01:59:07.378Z,1.70
2022-12-27T02:03:11.403Z,1.73
2022-12-27T02:07:12.842Z,1.43
2022-12-27T02:11:15.172Z,1.50
2022-12-27T02:15:16.370Z,1.30
2022-12-27T02:19:43.155Z,1.80
2022-12-27T02:24:06.145Z,1.70
2022-12-27T02:28:32.894Z,1.73
2022-12-27T02:32:49.663Z,1.23
2022-12-27T02:36:54.685Z,1.37
2022-12-27T02:41:17.253Z,1.30
2022-12-27T02:45:40.340Z,1.60
2022-12-27T02:50:01.785Z,1.37
2022-12-27T02:54:09.840Z,1.30
2022-12-27T02:58:48.179Z,1.50
2022-12-27T03:03:23.480Z,1.43
2022-12-27T03:07:40.399Z,1.77
2022-12-27T03:12:05.870Z,1.30
2022-12-27T03:16:10.925Z,1.70
2022-12-27T03:20:33.849Z,1.60
2022-12-27T03:24:57.678Z,1.40
2022-12-27T03:29:19.664Z,1.47
2022-12-27T03:33:21.738Z,1.87
2022-12-27T03:37:44.919Z,1.30
2022-12-27T03:42:08.616Z,2.80
2022-12-27T03:46:33.989Z,1.77
2022-12-27T03:50:42.131Z,1.90
2022-12-27T03:54:46.435Z,2.00
2022-12-27T03:58:47.715Z,1.70
2022-12-27T04:02:49.028Z,2.07
2022-12-27T04:06:50.421Z,1.70
2022-12-27T04:11:10.580Z,1.77
2022-12-27T04:15:30.483Z,1.83
2022-12-27T04:19:50.175Z,1.83
2022-12-27T04:24:09.953Z,2.27
2022-12-27T04:28:29.852Z,1.73
2022-12-27T04:32:49.572Z,1.87
2022-12-27T04:36:50.787Z,2.40
2022-12-27T04:41:10.229Z,2.23
2022-12-27T04:45:31.196Z,1.87
2022-12-27T04:49:52.127Z,1.43
2022-12-27T04:54:11.411Z,2.27
2022-12-27T04:58:12.590Z,2.33
2022-12-27T05:02:14.721Z,1.60
2022-12-27T05:06:17.377Z,1.70
2022-12-27T05:10:37.199Z,2.40
2022-12-27T05:14:38.396Z,2.20
2022-12-27T05:18:39.613Z,3.10
2022-12-27T05:22:59.251Z,2.00
2022-12-27T05:27:00.442Z,3.70
2022-12-27T05:31:04.536Z,2.27
2022-12-27T05:35:06.384Z,2.30
2022-12-27T05:39:07.557Z,2.90
2022-12-27T05:43:08.739Z,2.90
2022-12-27T05:47:09.902Z,2.37
2022-12-27T05:51:14.511Z,2.40
2022-12-27T05:55:15.715Z,2.67
2022-12-27T05:59:16.884Z,2.67
2022-12-27T06:03:18.383Z,2.67
2022-12-27T06:07:19.554Z,2.60
2022-12-27T06:11:20.730Z,2.73
2022-12-27T06:15:21.936Z,2.60
2022-12-27T06:19:23.421Z,3.30
2022-12-27T06:23:24.601Z,3.57
2022-12-27T06:27:25.801Z,3.30
2022-12-27T06:31:27.960Z,3.27
2022-12-27T06:35:29.175Z,3.83
2022-12-27T06:39:30.348Z,2.87
2022-12-27T06:43:32.159Z,2.70
2022-12-27T06:47:33.335Z,3.40
2022-12-27T06:51:34.507Z,2.90
2022-12-27T06:55:35.715Z,2.70
2022-12-27T06:59:36.907Z,5.60
2022-12-27T07:03:38.088Z,3.60
2022-12-27T07:07:39.280Z,6.47
2022-12-27T07:11:40.467Z,3.20
2022-12-27T07:15:41.657Z,3.30
2022-12-27T07:19:42.814Z,3.60
2022-12-27T07:23:44.021Z,4.67
2022-12-27T07:27:45.213Z,4.63
2022-12-27T07:31:46.442Z,4.50
2022-12-27T07:35:47.701Z,4.57
2022-12-27T07:39:48.900Z,3.60
2022-12-27T07:43:50.329Z,3.23
2022-12-27T07:47:51.490Z,3.73
2022-12-27T07:51:52.655Z,3.40
2022-12-27T07:55:53.793Z,3.30
2022-12-27T07:59:54.949Z,4.10
2022-12-27T08:03:56.205Z,3.63
2022-12-27T08:07:59.243Z,3.50
2022-12-27T08:12:00.389Z,3.70
2022-12-27T08:16:02.060Z,4.13
2022-12-27T08:20:03.779Z,12.13
2022-12-27T08:24:05.243Z,4.63
2022-12-27T08:28:09.404Z,3.70
2022-12-27T08:32:10.657Z,3.43
2022-12-27T08:36:45.276Z,3.43
2022-12-27T08:40:16.086Z,3.50
2022-12-27T08:44:17.237Z,4.60
2022-12-27T08:48:18.827Z,3.30
2022-12-27T08:52:20.030Z,3.30
2022-12-27T08:56:21.173Z,3.83
2022-12-27T09:00:22.760Z,3.57
2022-12-27T09:04:23.889Z,4.60
2022-12-27T09:08:25.053Z,3.50
2022-12-27T09:12:26.135Z,3.73
2022-12-27T09:16:28.373Z,3.80
2022-12-27T09:20:29.527Z,4.53
2022-12-27T09:24:30.676Z,4.40
2022-12-27T09:28:31.995Z,4.07
2022-12-27T09:32:33.969Z,3.27
2022-12-27T09:36:37.838Z,5.43
2022-12-27T09:40:39.104Z,4.20
2022-12-27T09:44:50.210Z,5.03
2022-12-27T09:48:53.887Z,6.77
2022-12-27T09:53:09.249Z,5.37
2022-12-27T09:57:20.784Z,5.50
2022-12-27T10:01:34.315Z,7.30
2022-12-27T10:05:37.588Z,5.70
2022-12-27T10:09:54.786Z,7.10
2022-12-27T10:13:59.645Z,6.73
2022-12-27T10:18:04.768Z,6.90
2022-12-27T10:22:13.011Z,5.70
2022-12-27T10:26:17.272Z,6.60
2022-12-27T10:30:21.173Z,6.20
2022-12-27T10:34:23.437Z,6.13
2022-12-27T10:38:28.388Z,6.47
2022-12-27T10:42:37.695Z,6.87
2022-12-27T10:46:41.940Z,7.47
2022-12-27T10:50:58.849Z,7.60
2022-12-27T10:54:59.988Z,6.57
2022-12-27T10:59:19.325Z,6.43
2022-12-27T11:03:20.474Z,5.63
2022-12-27T11:07:21.892Z,6.10
2022-12-27T11:11:25.130Z,6.90
2022-12-27T11:15:27.901Z,6.20
2022-12-27T11:19:29.163Z,6.90
2022-12-27T11:23:37.527Z,5.50
2022-12-27T11:27:39.186Z,5.90
2022-12-27T11:31:45.188Z,6.47
2022-12-27T11:35:49.658Z,6.57
2022-12-27T11:39:54.375Z,5.57
2022-12-27T11:44:02.361Z,5.57
2022-12-27T11:48:07.344Z,7.00
2022-12-27T11:52:27.736Z,5.93
2022-12-27T11:56:31.698Z,6.10
2022-12-27T12:00:39.326Z,6.40
2022-12-27T12:05:02.418Z,6.40
2022-12-27T12:09:28.808Z,4.70
2022-12-27T12:13:49.144Z,5.73
2022-12-27T12:17:54.086Z,4.80
2022-12-27T12:22:13.838Z,4.90
2022-12-27T12:26:23.061Z,4.87
2022-12-27T12:30:55.321Z,6.20
2022-12-27T12:35:24.914Z,5.43
2022-12-27T12:39:49.612Z,4.60
2022-12-27T12:44:28.149Z,5.13
2022-12-27T12:48:51.153Z,3.90
2022-12-27T12:52:58.894Z,4.27
2022-12-27T12:57:32.997Z,4.87
2022-12-27T13:01:50.973Z,5.27
2022-12-27T13:06:01.555Z,4.80
2022-12-27T13:10:24.219Z,6.10
2022-12-27T13:14:35.425Z,5.63
2022-12-27T13:18:57.309Z,4.50
2022-12-27T13:23:35.576Z,6.37
2022-12-27T13:27:46.528Z,5.60
2022-12-27T13:31:54.255Z,5.50
2022-12-27T13:36:11.067Z,5.10
2022-12-27T13:40:19.058Z,5.90
2022-12-27T13:44:46.218Z,5.30
2022-12-27T13:49:19.928Z,4.97
2022-12-27T13:53:30.903Z,4.33
2022-12-27T13:58:09.700Z,5.13
2022-12-27T14:02:34.722Z,6.13
2022-12-27T14:06:54.692Z,5.07
2022-12-27T14:11:00.699Z,5.10
2022-12-27T14:15:03.311Z,4.27
2022-12-27T14:19:17.008Z,5.20
2022-12-27T14:23:42.979Z,5.90
2022-12-27T14:27:53.950Z,5.10
2022-12-27T14:32:16.500Z,3.80
2022-12-27T14:36:27.496Z,5.60
2022-12-27T14:40:50.660Z,4.50
2022-12-27T14:45:01.688Z,4.23
2022-12-27T14:49:18.670Z,3.87
2022-12-27T14:53:32.285Z,3.83
2022-12-27T14:57:59.524Z,3.60
2022-12-27T15:02:10.147Z,4.60
2022-12-27T15:06:24.442Z,4.30
2022-12-27T15:10:46.342Z,4.23
2022-12-27T15:14:54.549Z,3.47
2022-12-27T15:19:17.553Z,4.97
2022-12-27T15:23:37.844Z,3.80
2022-12-27T15:28:06.785Z,3.40
2022-12-27T15:32:29.658Z,4.17
2022-12-27T15:36:42.953Z,3.77
2022-12-27T15:41:06.086Z,3.73
2022-12-27T15:45:42.123Z,4.70
2022-12-27T15:49:56.141Z,4.43
2022-12-27T15:54:07.164Z,4.00
2022-12-27T15:58:15.251Z,4.20
2022-12-27T16:02:22.810Z,4.07
2022-12-27T16:06:36.949Z,3.50
2022-12-27T16:10:45.183Z,3.40
2022-12-27T16:14:47.022Z,3.87
2022-12-27T16:18:52.016Z,5.53
2022-12-27T16:23:03.085Z,3.93
2022-12-27T16:27:05.062Z,4.10
2022-12-27T16:31:10.981Z,4.37
2022-12-27T16:35:15.236Z,4.60
2022-12-27T16:39:20.225Z,4.60
2022-12-27T16:43:33.602Z,3.70
2022-12-27T16:47:44.092Z,4.10
2022-12-27T16:52:05.715Z,3.87
2022-12-27T16:56:20.090Z,3.90
2022-12-27T17:00:50.915Z,4.30
2022-12-27T17:04:57.375Z,4.10
2022-12-27T17:09:11.441Z,3.60
2022-12-27T17:13:19.473Z,4.17
2022-12-27T17:17:22.564Z,4.17
2022-12-27T17:21:37.973Z,4.03
2022-12-27T17:25:49.030Z,4.77
2022-12-27T17:30:14.516Z,5.33
2022-12-27T17:34:35.089Z,4.40
2022-12-27T17:39:07.244Z,4.30
2022-12-27T17:43:51.311Z,4.63
2022-12-27T17:48:04.942Z,4.40
2022-12-27T17:52:24.451Z,4.00
2022-12-27T17:56:43.940Z,4.03
2022-12-27T18:00:57.437Z,4.23
2022-12-27T18:05:02.369Z,5.40
2022-12-27T18:09:05.331Z,6.37
2022-12-27T18:13:07.313Z,4.87
2022-12-27T18:17:29.353Z,5.33
2022-12-27T18:21:31.473Z,6.70
2022-12-27T18:25:37.027Z,6.00
2022-12-27T18:29:38.129Z,5.50
2022-12-27T18:33:51.855Z,4.40
2022-12-27T18:37:54.020Z,5.60
2022-12-27T18:41:56.228Z,5.80
2022-12-27T18:45:57.629Z,5.47
2022-12-27T18:50:02.601Z,6.93
2022-12-27T18:54:31.312Z,6.07
2022-12-27T18:58:33.378Z,5.70
2022-12-27T19:02:35.744Z,5.60
2022-12-27T19:06:37.078Z,6.07
2022-12-27T19:10:47.984Z,5.80
2022-12-27T19:14:49.576Z,5.87
2022-12-27T19:18:54.147Z,5.80
2022-12-27T19:22:57.320Z,6.17
2022-12-27T19:27:01.944Z,6.60
2022-12-27T19:31:18.653Z,6.50
2022-12-27T19:35:19.991Z,6.00
2022-12-27T19:39:24.625Z,7.00
2022-12-27T19:43:28.025Z,21.50
2022-12-27T19:47:30.627Z,8.53
2022-12-27T19:51:31.923Z,7.87
2022-12-27T19:55:35.136Z,7.90
2022-12-27T19:59:36.458Z,6.70
2022-12-27T20:03:37.645Z,5.97
2022-12-27T20:07:39.544Z,6.27
2022-12-27T20:11:41.107Z,5.80
2022-12-27T20:15:43.046Z,6.90
2022-12-27T20:19:44.327Z,5.53
2022-12-27T20:23:46.590Z,5.87
2022-12-27T20:27:47.835Z,5.73
2022-12-27T20:31:50.926Z,4.27
2022-12-27T20:35:57.641Z,4.67
2022-12-27T20:39:58.791Z,5.00
2022-12-27T20:44:00.166Z,4.40
2022-12-27T20:48:01.594Z,4.10
2022-12-27T20:52:03.215Z,4.00
2022-12-27T20:56:05.935Z,3.90
2022-12-27T21:00:10.745Z,4.70
2022-12-27T21:04:12.188Z,3.73
2022-12-27T21:08:13.365Z,4.13
2022-12-27T21:12:14.521Z,5.27
2022-12-27T21:16:19.882Z,4.40
2022-12-27T21:20:21.329Z,4.37
2022-12-27T21:24:22.489Z,3.90
2022-12-27T21:28:23.680Z,4.10
2022-12-27T21:32:24.857Z,4.70
2022-12-27T21:36:29.649Z,4.03
2022-12-27T21:40:31.002Z,3.57
2022-12-27T21:44:34.054Z,3.60
2022-12-27T21:48:37.017Z,3.60
2022-12-27T21:52:38.205Z,4.00
2022-12-27T21:56:39.768Z,3.70
2022-12-27T22:00:40.925Z,3.30
2022-12-27T22:04:42.065Z,3.30
2022-12-27T22:08:45.563Z,4.10
2022-12-27T22:12:46.708Z,3.57
2022-12-27T22:16:47.915Z,3.53
2022-12-27T22:20:49.380Z,3.57
2022-12-27T22:24:50.558Z,3.17
2022-12-27T22:28:52.108Z,3.40
2022-12-27T22:32:53.875Z,2.90
2022-12-27T22:36:55.339Z,4.17
2022-12-27T22:41:11.698Z,3.90
2022-12-27T22:45:12.880Z,3.13
2022-12-27T22:49:14.638Z,3.70
2022-12-27T22:53:15.797Z,3.60
2022-12-27T22:57:16.969Z,3.07
2022-12-27T23:01:22.300Z,3.23
2022-12-27T23:05:23.569Z,3.30
2022-12-27T23:09:24.718Z,3.90
2022-12-27T23:13:25.778Z,4.13
2022-12-27T23:17:26.961Z,3.43
2022-12-27T23:21:28.135Z,3.73
2022-12-27T23:25:29.298Z,4.37
2022-12-27T23:29:30.492Z,4.00
2022-12-27T23:33:32.054Z,5.00
2022-12-27T23:37:34.122Z,4.53
2022-12-27T23:41:36.503Z,3.80
2022-12-27T23:45:37.661Z,4.47
2022-12-27T23:49:38.829Z,3.93
2022-12-27T23:53:40.490Z,3.73
2022-12-27T23:57:41.674Z,4.80
